sensor_id;sensor_type;location;lat;lon;timestamp;P1;durP1;ratioP1;P2;durP2;ratioP2
15202;SDS011;7702;51.046;5.184;2023-05-10T00:01:25;20.40;;;15.63;;
15202;SDS011;7702;51.046;5.184;2023-05-10T00:03:50;21.70;;;16.70;;
15202;SDS011;7702;51.046;5.184;2023-05-10T00:06:16;20.17;;;15.47;;
15202;SDS011;7702;51.046;5.184;2023-05-10T00:08:42;21.50;;;15.63;;
15202;SDS011;7702;51.046;5.184;2023-05-10T00:11:08;24.43;;;14.87;;
15202;SDS011;7702;51.046;5.184;2023-05-10T00:13:34;18.73;;;14.70;;
15202;SDS011;7702;51.046;5.184;2023-05-10T00:16:00;19.87;;;14.93;;
15202;SDS011;7702;51.046;5.184;2023-05-10T00:18:26;22.13;;;15.77;;
15202;SDS011;7702;51.046;5.184;2023-05-10T00:20:51;20.40;;;15.40;;
15202;SDS011;7702;51.046;5.184;2023-05-10T00:23:17;23.73;;;16.20;;
15202;SDS011;7702;51.046;5.184;2023-05-10T00:25:43;24.00;;;15.53;;
15202;SDS011;7702;51.046;5.184;2023-05-10T00:28:09;22.27;;;15.33;;
15202;SDS011;7702;51.046;5.184;2023-05-10T00:30:35;21.57;;;15.43;;
15202;SDS011;7702;51.046;5.184;2023-05-10T00:33:00;21.10;;;15.07;;
15202;SDS011;7702;51.046;5.184;2023-05-10T00:35:26;24.27;;;15.93;;
15202;SDS011;7702;51.046;5.184;2023-05-10T00:37:52;21.60;;;14.93;;
15202;SDS011;7702;51.046;5.184;2023-05-10T00:40:18;18.27;;;14.83;;
15202;SDS011;7702;51.046;5.184;2023-05-10T00:42:43;21.03;;;14.83;;
15202;SDS011;7702;51.046;5.184;2023-05-10T00:45:09;21.73;;;15.90;;
15202;SDS011;7702;51.046;5.184;2023-05-10T00:47:35;20.00;;;15.37;;
15202;SDS011;7702;51.046;5.184;2023-05-10T00:50:01;19.10;;;14.23;;
15202;SDS011;7702;51.046;5.184;2023-05-10T00:52:27;21.23;;;14.73;;
15202;SDS011;7702;51.046;5.184;2023-05-10T00:54:55;19.30;;;15.60;;
15202;SDS011;7702;51.046;5.184;2023-05-10T00:57:21;20.90;;;15.23;;
15202;SDS011;7702;51.046;5.184;2023-05-10T00:59:47;20.33;;;14.87;;
15202;SDS011;7702;51.046;5.184;2023-05-10T01:02:13;20.93;;;14.83;;
15202;SDS011;7702;51.046;5.184;2023-05-10T01:04:39;18.80;;;14.67;;
15202;SDS011;7702;51.046;5.184;2023-05-10T01:07:05;19.27;;;14.50;;
15202;SDS011;7702;51.046;5.184;2023-05-10T01:09:31;18.97;;;13.83;;
15202;SDS011;7702;51.046;5.184;2023-05-10T01:11:58;18.43;;;13.03;;
15202;SDS011;7702;51.046;5.184;2023-05-10T01:14:25;20.07;;;14.03;;
15202;SDS011;7702;51.046;5.184;2023-05-10T01:16:52;20.87;;;14.43;;
15202;SDS011;7702;51.046;5.184;2023-05-10T01:33:05;20.10;;;13.57;;
15202;SDS011;7702;51.046;5.184;2023-05-10T01:38:04;21.40;;;13.37;;
15202;SDS011;7702;51.046;5.184;2023-05-10T01:44:04;18.30;;;13.27;;
15202;SDS011;7702;51.046;5.184;2023-05-10T01:49:37;20.47;;;12.93;;
15202;SDS011;7702;51.046;5.184;2023-05-10T01:52:09;19.10;;;12.93;;
15202;SDS011;7702;51.046;5.184;2023-05-10T01:54:40;21.80;;;13.93;;
15202;SDS011;7702;51.046;5.184;2023-05-10T01:57:09;20.07;;;13.20;;
15202;SDS011;7702;51.046;5.184;2023-05-10T01:59:39;19.87;;;14.10;;
15202;SDS011;7702;51.046;5.184;2023-05-10T02:02:08;19.53;;;13.80;;
15202;SDS011;7702;51.046;5.184;2023-05-10T02:04:37;20.27;;;14.30;;
15202;SDS011;7702;51.046;5.184;2023-05-10T02:07:04;18.37;;;13.87;;
15202;SDS011;7702;51.046;5.184;2023-05-10T02:09:32;24.03;;;14.67;;
15202;SDS011;7702;51.046;5.184;2023-05-10T02:12:00;20.93;;;14.77;;
15202;SDS011;7702;51.046;5.184;2023-05-10T02:14:28;22.73;;;14.87;;
15202;SDS011;7702;51.046;5.184;2023-05-10T02:16:58;20.07;;;14.50;;
15202;SDS011;7702;51.046;5.184;2023-05-10T02:19:26;23.57;;;14.53;;
15202;SDS011;7702;51.046;5.184;2023-05-10T02:21:55;22.80;;;14.67;;
15202;SDS011;7702;51.046;5.184;2023-05-10T02:24:22;24.40;;;14.13;;
15202;SDS011;7702;51.046;5.184;2023-05-10T02:26:51;21.00;;;14.70;;
15202;SDS011;7702;51.046;5.184;2023-05-10T02:29:20;24.03;;;15.20;;
15202;SDS011;7702;51.046;5.184;2023-05-10T02:31:52;22.40;;;15.17;;
15202;SDS011;7702;51.046;5.184;2023-05-10T02:34:20;24.47;;;14.20;;
15202;SDS011;7702;51.046;5.184;2023-05-10T02:36:47;23.03;;;14.57;;
15202;SDS011;7702;51.046;5.184;2023-05-10T02:39:14;22.27;;;14.53;;
15202;SDS011;7702;51.046;5.184;2023-05-10T02:41:41;19.57;;;13.90;;
15202;SDS011;7702;51.046;5.184;2023-05-10T02:44:08;20.30;;;13.80;;
15202;SDS011;7702;51.046;5.184;2023-05-10T02:46:35;23.07;;;14.40;;
15202;SDS011;7702;51.046;5.184;2023-05-10T02:49:02;19.83;;;13.40;;
15202;SDS011;7702;51.046;5.184;2023-05-10T02:51:30;25.53;;;14.30;;
15202;SDS011;7702;51.046;5.184;2023-05-10T02:54:10;23.33;;;15.03;;
15202;SDS011;7702;51.046;5.184;2023-05-10T02:56:40;22.73;;;13.97;;
15202;SDS011;7702;51.046;5.184;2023-05-10T02:59:12;22.43;;;14.33;;
15202;SDS011;7702;51.046;5.184;2023-05-10T03:01:37;21.43;;;13.70;;
15202;SDS011;7702;51.046;5.184;2023-05-10T03:04:03;20.60;;;13.47;;
15202;SDS011;7702;51.046;5.184;2023-05-10T03:06:29;21.27;;;14.37;;
15202;SDS011;7702;51.046;5.184;2023-05-10T03:08:55;23.37;;;14.03;;
15202;SDS011;7702;51.046;5.184;2023-05-10T03:11:39;21.20;;;14.47;;
15202;SDS011;7702;51.046;5.184;2023-05-10T03:17:00;22.17;;;13.43;;
15202;SDS011;7702;51.046;5.184;2023-05-10T03:19:40;19.93;;;14.13;;
15202;SDS011;7702;51.046;5.184;2023-05-10T03:22:13;21.63;;;13.17;;
15202;SDS011;7702;51.046;5.184;2023-05-10T03:24:46;23.23;;;14.30;;
15202;SDS011;7702;51.046;5.184;2023-05-10T03:27:13;23.73;;;14.70;;
15202;SDS011;7702;51.046;5.184;2023-05-10T03:29:40;23.93;;;14.80;;
15202;SDS011;7702;51.046;5.184;2023-05-10T03:32:07;19.80;;;13.67;;
15202;SDS011;7702;51.046;5.184;2023-05-10T03:34:33;19.40;;;13.90;;
15202;SDS011;7702;51.046;5.184;2023-05-10T03:37:06;22.93;;;14.53;;
15202;SDS011;7702;51.046;5.184;2023-05-10T03:39:31;22.27;;;14.30;;
15202;SDS011;7702;51.046;5.184;2023-05-10T03:41:57;21.30;;;13.90;;
15202;SDS011;7702;51.046;5.184;2023-05-10T03:44:23;23.23;;;14.37;;
15202;SDS011;7702;51.046;5.184;2023-05-10T03:46:49;23.90;;;14.57;;
15202;SDS011;7702;51.046;5.184;2023-05-10T03:49:15;20.57;;;14.33;;
15202;SDS011;7702;51.046;5.184;2023-05-10T03:51:40;22.97;;;15.40;;
15202;SDS011;7702;51.046;5.184;2023-05-10T03:54:06;23.93;;;14.57;;
15202;SDS011;7702;51.046;5.184;2023-05-10T03:56:32;21.10;;;13.87;;
15202;SDS011;7702;51.046;5.184;2023-05-10T03:58:57;20.77;;;14.90;;
15202;SDS011;7702;51.046;5.184;2023-05-10T04:01:23;25.63;;;15.77;;
15202;SDS011;7702;51.046;5.184;2023-05-10T04:03:49;22.90;;;14.30;;
15202;SDS011;7702;51.046;5.184;2023-05-10T04:06:14;21.27;;;14.57;;
15202;SDS011;7702;51.046;5.184;2023-05-10T04:08:40;25.07;;;16.03;;
15202;SDS011;7702;51.046;5.184;2023-05-10T04:11:10;22.50;;;15.80;;
15202;SDS011;7702;51.046;5.184;2023-05-10T04:13:36;22.73;;;14.30;;
15202;SDS011;7702;51.046;5.184;2023-05-10T04:16:03;23.80;;;15.17;;
15202;SDS011;7702;51.046;5.184;2023-05-10T04:18:30;23.47;;;15.73;;
15202;SDS011;7702;51.046;5.184;2023-05-10T04:20:56;25.93;;;16.10;;
15202;SDS011;7702;51.046;5.184;2023-05-10T04:23:22;24.00;;;15.37;;
15202;SDS011;7702;51.046;5.184;2023-05-10T04:25:47;24.43;;;15.93;;
15202;SDS011;7702;51.046;5.184;2023-05-10T04:28:14;27.97;;;17.27;;
15202;SDS011;7702;51.046;5.184;2023-05-10T04:30:39;26.13;;;16.57;;
15202;SDS011;7702;51.046;5.184;2023-05-10T04:33:05;23.57;;;16.47;;
15202;SDS011;7702;51.046;5.184;2023-05-10T04:35:31;28.63;;;17.07;;
15202;SDS011;7702;51.046;5.184;2023-05-10T04:37:57;25.80;;;17.60;;
15202;SDS011;7702;51.046;5.184;2023-05-10T04:40:22;24.17;;;16.43;;
15202;SDS011;7702;51.046;5.184;2023-05-10T04:42:48;28.23;;;17.33;;
15202;SDS011;7702;51.046;5.184;2023-05-10T04:45:14;26.93;;;17.67;;
15202;SDS011;7702;51.046;5.184;2023-05-10T04:47:40;28.30;;;19.17;;
15202;SDS011;7702;51.046;5.184;2023-05-10T04:50:06;29.13;;;18.77;;
15202;SDS011;7702;51.046;5.184;2023-05-10T04:52:32;30.17;;;18.30;;
15202;SDS011;7702;51.046;5.184;2023-05-10T04:54:59;29.97;;;20.93;;
15202;SDS011;7702;51.046;5.184;2023-05-10T04:57:24;38.40;;;21.50;;
15202;SDS011;7702;51.046;5.184;2023-05-10T04:59:50;36.33;;;21.60;;
15202;SDS011;7702;51.046;5.184;2023-05-10T05:02:17;39.43;;;23.57;;
15202;SDS011;7702;51.046;5.184;2023-05-10T05:04:43;44.43;;;24.93;;
15202;SDS011;7702;51.046;5.184;2023-05-10T05:07:09;54.37;;;28.03;;
15202;SDS011;7702;51.046;5.184;2023-05-10T05:09:35;57.93;;;29.93;;
15202;SDS011;7702;51.046;5.184;2023-05-10T05:12:01;55.77;;;28.90;;
15202;SDS011;7702;51.046;5.184;2023-05-10T05:14:26;56.70;;;29.60;;
15202;SDS011;7702;51.046;5.184;2023-05-10T05:16:52;60.07;;;30.77;;
15202;SDS011;7702;51.046;5.184;2023-05-10T05:19:18;55.40;;;29.73;;
15202;SDS011;7702;51.046;5.184;2023-05-10T05:21:44;59.37;;;29.63;;
15202;SDS011;7702;51.046;5.184;2023-05-10T05:24:09;57.90;;;28.57;;
15202;SDS011;7702;51.046;5.184;2023-05-10T05:26:36;53.40;;;28.00;;
15202;SDS011;7702;51.046;5.184;2023-05-10T05:29:02;56.40;;;29.90;;
15202;SDS011;7702;51.046;5.184;2023-05-10T05:31:28;59.87;;;28.90;;
15202;SDS011;7702;51.046;5.184;2023-05-10T05:33:54;57.30;;;28.23;;
15202;SDS011;7702;51.046;5.184;2023-05-10T05:36:20;54.40;;;27.60;;
15202;SDS011;7702;51.046;5.184;2023-05-10T05:38:46;52.37;;;27.73;;
15202;SDS011;7702;51.046;5.184;2023-05-10T05:41:12;51.37;;;27.53;;
15202;SDS011;7702;51.046;5.184;2023-05-10T05:43:38;46.33;;;25.37;;
15202;SDS011;7702;51.046;5.184;2023-05-10T05:46:04;44.23;;;24.77;;
15202;SDS011;7702;51.046;5.184;2023-05-10T05:48:30;44.00;;;24.73;;
15202;SDS011;7702;51.046;5.184;2023-05-10T05:50:56;43.43;;;25.00;;
15202;SDS011;7702;51.046;5.184;2023-05-10T05:53:22;41.23;;;24.53;;
15202;SDS011;7702;51.046;5.184;2023-05-10T05:55:55;46.27;;;24.60;;
15202;SDS011;7702;51.046;5.184;2023-05-10T05:58:22;41.07;;;23.33;;
15202;SDS011;7702;51.046;5.184;2023-05-10T06:00:49;40.10;;;22.73;;
15202;SDS011;7702;51.046;5.184;2023-05-10T06:03:15;41.77;;;23.87;;
15202;SDS011;7702;51.046;5.184;2023-05-10T06:05:40;38.60;;;22.80;;
15202;SDS011;7702;51.046;5.184;2023-05-10T06:08:06;36.70;;;22.67;;
15202;SDS011;7702;51.046;5.184;2023-05-10T06:10:32;34.90;;;21.63;;
15202;SDS011;7702;51.046;5.184;2023-05-10T06:12:57;39.80;;;22.67;;
15202;SDS011;7702;51.046;5.184;2023-05-10T06:15:23;39.70;;;23.17;;
15202;SDS011;7702;51.046;5.184;2023-05-10T06:17:49;41.40;;;23.17;;
15202;SDS011;7702;51.046;5.184;2023-05-10T06:20:15;42.37;;;23.30;;
15202;SDS011;7702;51.046;5.184;2023-05-10T06:22:41;41.77;;;23.80;;
15202;SDS011;7702;51.046;5.184;2023-05-10T06:25:07;40.07;;;23.37;;
15202;SDS011;7702;51.046;5.184;2023-05-10T06:27:34;43.27;;;25.23;;
15202;SDS011;7702;51.046;5.184;2023-05-10T06:29:59;43.63;;;25.10;;
15202;SDS011;7702;51.046;5.184;2023-05-10T06:32:25;45.77;;;25.67;;
15202;SDS011;7702;51.046;5.184;2023-05-10T06:34:51;39.77;;;24.53;;
15202;SDS011;7702;51.046;5.184;2023-05-10T06:37:17;42.90;;;24.00;;
15202;SDS011;7702;51.046;5.184;2023-05-10T06:39:43;44.47;;;24.70;;
15202;SDS011;7702;51.046;5.184;2023-05-10T06:42:09;47.17;;;26.33;;
15202;SDS011;7702;51.046;5.184;2023-05-10T06:44:34;50.20;;;25.03;;
15202;SDS011;7702;51.046;5.184;2023-05-10T06:47:00;40.73;;;23.77;;
15202;SDS011;7702;51.046;5.184;2023-05-10T06:49:26;40.57;;;23.53;;
15202;SDS011;7702;51.046;5.184;2023-05-10T06:51:51;43.00;;;23.60;;
15202;SDS011;7702;51.046;5.184;2023-05-10T06:54:17;43.07;;;24.37;;
15202;SDS011;7702;51.046;5.184;2023-05-10T06:56:43;39.90;;;22.73;;
15202;SDS011;7702;51.046;5.184;2023-05-10T06:59:09;40.73;;;23.17;;
15202;SDS011;7702;51.046;5.184;2023-05-10T07:01:35;38.90;;;22.80;;
15202;SDS011;7702;51.046;5.184;2023-05-10T07:04:00;38.93;;;23.10;;
15202;SDS011;7702;51.046;5.184;2023-05-10T07:06:26;38.70;;;24.30;;
15202;SDS011;7702;51.046;5.184;2023-05-10T07:08:52;39.63;;;24.00;;
15202;SDS011;7702;51.046;5.184;2023-05-10T07:11:18;43.03;;;24.30;;
15202;SDS011;7702;51.046;5.184;2023-05-10T07:13:43;39.03;;;23.17;;
15202;SDS011;7702;51.046;5.184;2023-05-10T07:16:11;37.63;;;22.70;;
15202;SDS011;7702;51.046;5.184;2023-05-10T07:18:37;36.07;;;22.83;;
15202;SDS011;7702;51.046;5.184;2023-05-10T07:21:02;37.30;;;22.43;;
15202;SDS011;7702;51.046;5.184;2023-05-10T07:23:28;43.00;;;23.27;;
15202;SDS011;7702;51.046;5.184;2023-05-10T07:25:55;43.30;;;25.03;;
15202;SDS011;7702;51.046;5.184;2023-05-10T07:28:22;43.07;;;24.17;;
15202;SDS011;7702;51.046;5.184;2023-05-10T07:30:49;45.10;;;25.30;;
15202;SDS011;7702;51.046;5.184;2023-05-10T07:33:15;42.50;;;23.13;;
15202;SDS011;7702;51.046;5.184;2023-05-10T07:35:41;40.40;;;24.57;;
15202;SDS011;7702;51.046;5.184;2023-05-10T07:38:07;45.03;;;24.80;;
15202;SDS011;7702;51.046;5.184;2023-05-10T07:40:33;44.90;;;25.40;;
15202;SDS011;7702;51.046;5.184;2023-05-10T07:42:59;42.13;;;25.70;;
15202;SDS011;7702;51.046;5.184;2023-05-10T07:45:26;44.53;;;25.13;;
15202;SDS011;7702;51.046;5.184;2023-05-10T07:47:53;42.07;;;25.87;;
15202;SDS011;7702;51.046;5.184;2023-05-10T07:50:19;43.93;;;25.03;;
15202;SDS011;7702;51.046;5.184;2023-05-10T07:52:46;39.50;;;24.50;;
15202;SDS011;7702;51.046;5.184;2023-05-10T07:55:12;42.47;;;24.40;;
15202;SDS011;7702;51.046;5.184;2023-05-10T07:57:37;43.43;;;24.20;;
15202;SDS011;7702;51.046;5.184;2023-05-10T08:00:04;40.03;;;23.80;;
15202;SDS011;7702;51.046;5.184;2023-05-10T08:02:30;39.87;;;22.77;;
15202;SDS011;7702;51.046;5.184;2023-05-10T08:04:56;40.20;;;23.47;;
15202;SDS011;7702;51.046;5.184;2023-05-10T08:07:22;44.20;;;23.73;;
15202;SDS011;7702;51.046;5.184;2023-05-10T08:09:49;55.87;;;25.07;;
15202;SDS011;7702;51.046;5.184;2023-05-10T08:12:15;36.53;;;23.27;;
15202;SDS011;7702;51.046;5.184;2023-05-10T08:14:41;36.23;;;22.60;;
15202;SDS011;7702;51.046;5.184;2023-05-10T08:17:06;36.83;;;22.90;;
15202;SDS011;7702;51.046;5.184;2023-05-10T08:19:32;40.83;;;23.30;;
15202;SDS011;7702;51.046;5.184;2023-05-10T08:21:58;37.27;;;22.50;;
15202;SDS011;7702;51.046;5.184;2023-05-10T08:24:24;38.97;;;22.50;;
15202;SDS011;7702;51.046;5.184;2023-05-10T08:26:49;30.27;;;20.23;;
15202;SDS011;7702;51.046;5.184;2023-05-10T08:29:15;30.40;;;20.37;;
15202;SDS011;7702;51.046;5.184;2023-05-10T08:31:41;30.63;;;20.67;;
15202;SDS011;7702;51.046;5.184;2023-05-10T08:34:07;31.13;;;20.47;;
15202;SDS011;7702;51.046;5.184;2023-05-10T08:36:32;26.87;;;20.07;;
15202;SDS011;7702;51.046;5.184;2023-05-10T08:38:58;27.27;;;20.67;;
15202;SDS011;7702;51.046;5.184;2023-05-10T08:41:24;27.60;;;20.07;;
15202;SDS011;7702;51.046;5.184;2023-05-10T08:43:51;28.37;;;19.87;;
15202;SDS011;7702;51.046;5.184;2023-05-10T08:46:18;26.27;;;19.87;;
15202;SDS011;7702;51.046;5.184;2023-05-10T08:48:46;29.93;;;21.43;;
15202;SDS011;7702;51.046;5.184;2023-05-10T08:51:13;30.53;;;21.10;;
15202;SDS011;7702;51.046;5.184;2023-05-10T08:53:40;24.87;;;20.03;;
15202;SDS011;7702;51.046;5.184;2023-05-10T08:56:06;25.77;;;19.67;;
15202;SDS011;7702;51.046;5.184;2023-05-10T08:58:32;25.00;;;18.43;;
15202;SDS011;7702;51.046;5.184;2023-05-10T09:00:58;28.80;;;19.90;;
15202;SDS011;7702;51.046;5.184;2023-05-10T09:03:26;25.30;;;18.20;;
15202;SDS011;7702;51.046;5.184;2023-05-10T09:05:51;23.80;;;18.37;;
15202;SDS011;7702;51.046;5.184;2023-05-10T09:08:18;22.50;;;18.27;;
15202;SDS011;7702;51.046;5.184;2023-05-10T09:10:44;25.77;;;19.57;;
15202;SDS011;7702;51.046;5.184;2023-05-10T09:13:12;24.77;;;19.47;;
15202;SDS011;7702;51.046;5.184;2023-05-10T09:15:40;13.87;;;11.23;;
15202;SDS011;7702;51.046;5.184;2023-05-10T09:18:06;10.23;;;8.87;;
15202;SDS011;7702;51.046;5.184;2023-05-10T09:20:32;11.63;;;8.77;;
15202;SDS011;7702;51.046;5.184;2023-05-10T09:22:57;10.23;;;8.67;;
15202;SDS011;7702;51.046;5.184;2023-05-10T09:25:23;24.67;;;10.20;;
15202;SDS011;7702;51.046;5.184;2023-05-10T09:27:48;12.60;;;9.07;;
15202;SDS011;7702;51.046;5.184;2023-05-10T09:30:15;10.07;;;8.50;;
15202;SDS011;7702;51.046;5.184;2023-05-10T09:32:43;11.87;;;9.40;;
15202;SDS011;7702;51.046;5.184;2023-05-10T09:35:14;9.67;;;8.33;;
15202;SDS011;7702;51.046;5.184;2023-05-10T09:37:42;10.40;;;8.47;;
15202;SDS011;7702;51.046;5.184;2023-05-10T09:40:13;10.03;;;8.30;;
15202;SDS011;7702;51.046;5.184;2023-05-10T09:42:41;10.27;;;8.40;;
15202;SDS011;7702;51.046;5.184;2023-05-10T09:45:08;10.30;;;8.50;;
15202;SDS011;7702;51.046;5.184;2023-05-10T09:47:34;9.93;;;8.13;;
15202;SDS011;7702;51.046;5.184;2023-05-10T09:50:01;10.43;;;8.33;;
15202;SDS011;7702;51.046;5.184;2023-05-10T09:52:48;11.63;;;8.90;;
15202;SDS011;7702;51.046;5.184;2023-05-10T09:55:25;9.33;;;8.30;;
15202;SDS011;7702;51.046;5.184;2023-05-10T09:58:03;13.07;;;9.40;;
15202;SDS011;7702;51.046;5.184;2023-05-10T10:00:35;12.47;;;11.07;;
15202;SDS011;7702;51.046;5.184;2023-05-10T10:03:03;13.77;;;10.70;;
15202;SDS011;7702;51.046;5.184;2023-05-10T10:05:29;14.23;;;10.87;;
15202;SDS011;7702;51.046;5.184;2023-05-10T10:08:00;15.87;;;10.60;;
15202;SDS011;7702;51.046;5.184;2023-05-10T10:10:29;12.50;;;10.23;;
15202;SDS011;7702;51.046;5.184;2023-05-10T10:12:56;14.27;;;11.10;;
15202;SDS011;7702;51.046;5.184;2023-05-10T10:15:23;15.77;;;11.13;;
15202;SDS011;7702;51.046;5.184;2023-05-10T10:17:49;14.87;;;11.27;;
15202;SDS011;7702;51.046;5.184;2023-05-10T10:20:16;13.57;;;11.27;;
15202;SDS011;7702;51.046;5.184;2023-05-10T10:22:43;15.00;;;11.67;;
15202;SDS011;7702;51.046;5.184;2023-05-10T10:25:09;15.77;;;10.80;;
15202;SDS011;7702;51.046;5.184;2023-05-10T10:27:45;15.23;;;10.47;;
15202;SDS011;7702;51.046;5.184;2023-05-10T10:30:20;14.03;;;10.87;;
15202;SDS011;7702;51.046;5.184;2023-05-10T10:35:49;13.13;;;11.07;;
15202;SDS011;7702;51.046;5.184;2023-05-10T10:38:15;12.13;;;10.60;;
15202;SDS011;7702;51.046;5.184;2023-05-10T10:40:42;15.33;;;11.80;;
15202;SDS011;7702;51.046;5.184;2023-05-10T10:43:24;14.23;;;10.83;;
15202;SDS011;7702;51.046;5.184;2023-05-10T10:48:39;13.07;;;10.93;;
15202;SDS011;7702;51.046;5.184;2023-05-10T10:51:06;12.70;;;10.40;;
15202;SDS011;7702;51.046;5.184;2023-05-10T10:53:31;11.77;;;10.13;;
15202;SDS011;7702;51.046;5.184;2023-05-10T10:56:05;12.20;;;10.53;;
15202;SDS011;7702;51.046;5.184;2023-05-10T10:58:40;14.17;;;11.20;;
15202;SDS011;7702;51.046;5.184;2023-05-10T11:01:24;13.07;;;10.63;;
15202;SDS011;7702;51.046;5.184;2023-05-10T11:06:32;11.13;;;9.13;;
15202;SDS011;7702;51.046;5.184;2023-05-10T11:09:07;11.77;;;9.27;;
15202;SDS011;7702;51.046;5.184;2023-05-10T11:11:34;10.07;;;8.40;;
15202;SDS011;7702;51.046;5.184;2023-05-10T11:14:07;10.23;;;7.77;;
15202;SDS011;7702;51.046;5.184;2023-05-10T11:16:42;11.40;;;8.83;;
15202;SDS011;7702;51.046;5.184;2023-05-10T11:19:09;9.87;;;8.27;;
15202;SDS011;7702;51.046;5.184;2023-05-10T11:24:16;10.20;;;7.80;;
15202;SDS011;7702;51.046;5.184;2023-05-10T11:26:49;10.73;;;7.50;;
15202;SDS011;7702;51.046;5.184;2023-05-10T11:29:16;10.00;;;7.73;;
15202;SDS011;7702;51.046;5.184;2023-05-10T11:31:43;8.87;;;7.27;;
15202;SDS011;7702;51.046;5.184;2023-05-10T11:34:10;7.93;;;7.13;;
15202;SDS011;7702;51.046;5.184;2023-05-10T11:36:36;8.73;;;6.47;;
15202;SDS011;7702;51.046;5.184;2023-05-10T11:39:02;8.90;;;7.37;;
15202;SDS011;7702;51.046;5.184;2023-05-10T11:41:29;8.77;;;6.80;;
15202;SDS011;7702;51.046;5.184;2023-05-10T11:43:56;6.80;;;6.13;;
15202;SDS011;7702;51.046;5.184;2023-05-10T11:46:24;8.20;;;6.50;;
15202;SDS011;7702;51.046;5.184;2023-05-10T11:48:52;7.87;;;6.30;;
15202;SDS011;7702;51.046;5.184;2023-05-10T11:51:24;9.57;;;6.83;;
15202;SDS011;7702;51.046;5.184;2023-05-10T11:53:52;7.17;;;6.13;;
15202;SDS011;7702;51.046;5.184;2023-05-10T11:56:18;6.40;;;5.80;;
15202;SDS011;7702;51.046;5.184;2023-05-10T11:58:51;10.47;;;6.70;;
15202;SDS011;7702;51.046;5.184;2023-05-10T12:01:18;7.53;;;5.70;;
15202;SDS011;7702;51.046;5.184;2023-05-10T12:03:45;7.07;;;6.37;;
15202;SDS011;7702;51.046;5.184;2023-05-10T12:06:11;6.83;;;6.10;;
15202;SDS011;7702;51.046;5.184;2023-05-10T12:08:36;8.00;;;5.60;;
15202;SDS011;7702;51.046;5.184;2023-05-10T12:11:11;7.63;;;5.67;;
15202;SDS011;7702;51.046;5.184;2023-05-10T12:13:38;6.40;;;5.73;;
15202;SDS011;7702;51.046;5.184;2023-05-10T12:16:23;5.63;;;5.03;;
15202;SDS011;7702;51.046;5.184;2023-05-10T12:18:50;5.80;;;5.27;;
15202;SDS011;7702;51.046;5.184;2023-05-10T12:21:18;6.93;;;5.50;;
15202;SDS011;7702;51.046;5.184;2023-05-10T12:23:45;5.63;;;4.80;;
15202;SDS011;7702;51.046;5.184;2023-05-10T12:26:12;5.07;;;4.57;;
15202;SDS011;7702;51.046;5.184;2023-05-10T12:28:38;4.90;;;4.40;;
15202;SDS011;7702;51.046;5.184;2023-05-10T12:31:06;4.67;;;4.27;;
15202;SDS011;7702;51.046;5.184;2023-05-10T12:33:39;5.37;;;4.40;;
15202;SDS011;7702;51.046;5.184;2023-05-10T12:36:08;7.23;;;4.73;;
15202;SDS011;7702;51.046;5.184;2023-05-10T12:38:36;4.70;;;4.20;;
15202;SDS011;7702;51.046;5.184;2023-05-10T12:41:11;4.47;;;4.10;;
15202;SDS011;7702;51.046;5.184;2023-05-10T12:43:39;4.90;;;4.40;;
15202;SDS011;7702;51.046;5.184;2023-05-10T12:46:09;4.23;;;3.60;;
15202;SDS011;7702;51.046;5.184;2023-05-10T12:48:36;4.03;;;3.63;;
15202;SDS011;7702;51.046;5.184;2023-05-10T12:51:02;4.37;;;3.93;;
15202;SDS011;7702;51.046;5.184;2023-05-10T12:53:29;4.17;;;3.80;;
15202;SDS011;7702;51.046;5.184;2023-05-10T12:55:55;3.77;;;3.47;;
15202;SDS011;7702;51.046;5.184;2023-05-10T12:58:21;4.03;;;3.20;;
15202;SDS011;7702;51.046;5.184;2023-05-10T13:00:47;4.23;;;3.83;;
15202;SDS011;7702;51.046;5.184;2023-05-10T13:03:13;4.37;;;3.97;;
15202;SDS011;7702;51.046;5.184;2023-05-10T13:05:40;6.43;;;3.43;;
15202;SDS011;7702;51.046;5.184;2023-05-10T13:08:06;3.60;;;3.30;;
15202;SDS011;7702;51.046;5.184;2023-05-10T13:10:31;4.30;;;3.13;;
15202;SDS011;7702;51.046;5.184;2023-05-10T13:12:58;4.83;;;4.00;;
15202;SDS011;7702;51.046;5.184;2023-05-10T13:15:24;4.30;;;3.50;;
15202;SDS011;7702;51.046;5.184;2023-05-10T13:17:51;3.50;;;3.20;;
15202;SDS011;7702;51.046;5.184;2023-05-10T13:20:16;4.20;;;3.60;;
15202;SDS011;7702;51.046;5.184;2023-05-10T13:22:43;3.43;;;3.13;;
15202;SDS011;7702;51.046;5.184;2023-05-10T13:25:10;5.30;;;3.43;;
15202;SDS011;7702;51.046;5.184;2023-05-10T13:27:36;3.90;;;3.50;;
15202;SDS011;7702;51.046;5.184;2023-05-10T13:30:02;3.23;;;3.00;;
15202;SDS011;7702;51.046;5.184;2023-05-10T13:32:29;12.83;;;6.93;;
15202;SDS011;7702;51.046;5.184;2023-05-10T13:34:55;3.17;;;2.87;;
15202;SDS011;7702;51.046;5.184;2023-05-10T13:37:21;11.17;;;6.27;;
15202;SDS011;7702;51.046;5.184;2023-05-10T13:39:47;3.23;;;2.50;;
15202;SDS011;7702;51.046;5.184;2023-05-10T13:42:13;2.80;;;2.47;;
15202;SDS011;7702;51.046;5.184;2023-05-10T13:44:39;3.67;;;2.77;;
15202;SDS011;7702;51.046;5.184;2023-05-10T13:47:05;3.13;;;2.83;;
15202;SDS011;7702;51.046;5.184;2023-05-10T13:49:31;3.10;;;2.80;;
15202;SDS011;7702;51.046;5.184;2023-05-10T13:51:57;3.17;;;2.87;;
15202;SDS011;7702;51.046;5.184;2023-05-10T13:54:23;2.73;;;2.50;;
15202;SDS011;7702;51.046;5.184;2023-05-10T13:56:49;3.53;;;3.00;;
15202;SDS011;7702;51.046;5.184;2023-05-10T13:59:15;6.00;;;2.97;;
15202;SDS011;7702;51.046;5.184;2023-05-10T14:01:41;3.07;;;2.37;;
15202;SDS011;7702;51.046;5.184;2023-05-10T14:04:07;2.70;;;2.50;;
15202;SDS011;7702;51.046;5.184;2023-05-10T14:06:35;3.50;;;2.87;;
15202;SDS011;7702;51.046;5.184;2023-05-10T14:09:02;3.10;;;2.80;;
15202;SDS011;7702;51.046;5.184;2023-05-10T14:11:28;5.53;;;3.60;;
15202;SDS011;7702;51.046;5.184;2023-05-10T14:13:54;3.10;;;2.80;;
15202;SDS011;7702;51.046;5.184;2023-05-10T14:16:20;4.10;;;3.23;;
15202;SDS011;7702;51.046;5.184;2023-05-10T14:18:46;3.70;;;2.97;;
15202;SDS011;7702;51.046;5.184;2023-05-10T14:21:11;3.13;;;2.90;;
15202;SDS011;7702;51.046;5.184;2023-05-10T14:23:38;4.67;;;3.07;;
15202;SDS011;7702;51.046;5.184;2023-05-10T14:26:04;3.97;;;3.10;;
15202;SDS011;7702;51.046;5.184;2023-05-10T14:28:30;3.40;;;3.10;;
15202;SDS011;7702;51.046;5.184;2023-05-10T14:30:56;3.73;;;3.07;;
15202;SDS011;7702;51.046;5.184;2023-05-10T14:33:21;3.70;;;3.00;;
15202;SDS011;7702;51.046;5.184;2023-05-10T14:35:47;5.77;;;3.83;;
15202;SDS011;7702;51.046;5.184;2023-05-10T14:38:13;4.43;;;3.93;;
15202;SDS011;7702;51.046;5.184;2023-05-10T14:40:39;3.67;;;3.37;;
15202;SDS011;7702;51.046;5.184;2023-05-10T14:43:05;4.33;;;3.57;;
15202;SDS011;7702;51.046;5.184;2023-05-10T14:45:31;4.20;;;3.80;;
15202;SDS011;7702;51.046;5.184;2023-05-10T14:47:57;3.67;;;2.90;;
15202;SDS011;7702;51.046;5.184;2023-05-10T14:50:23;3.43;;;3.13;;
15202;SDS011;7702;51.046;5.184;2023-05-10T14:52:48;5.10;;;4.07;;
15202;SDS011;7702;51.046;5.184;2023-05-10T14:55:15;3.00;;;2.80;;
15202;SDS011;7702;51.046;5.184;2023-05-10T14:57:41;3.67;;;3.37;;
15202;SDS011;7702;51.046;5.184;2023-05-10T15:00:07;3.40;;;3.07;;
15202;SDS011;7702;51.046;5.184;2023-05-10T15:02:33;3.83;;;3.50;;
15202;SDS011;7702;51.046;5.184;2023-05-10T15:04:58;4.07;;;3.57;;
15202;SDS011;7702;51.046;5.184;2023-05-10T15:07:24;5.17;;;3.67;;
15202;SDS011;7702;51.046;5.184;2023-05-10T15:09:50;3.80;;;3.50;;
15202;SDS011;7702;51.046;5.184;2023-05-10T15:12:17;3.73;;;3.43;;
15202;SDS011;7702;51.046;5.184;2023-05-10T15:14:43;3.63;;;3.20;;
15202;SDS011;7702;51.046;5.184;2023-05-10T15:17:09;3.60;;;3.27;;
15202;SDS011;7702;51.046;5.184;2023-05-10T15:19:35;3.80;;;3.50;;